sensor_id;sensor_type;location;lat;lon;timestamp;P1;P2;P0
13030;PMS7003;6582;54.644;9.760;2023-04-07T05:05:02;4.0;4.0;
13030;PMS7003;6582;54.644;9.760;2023-04-07T05:15:01;4.8;4.8;
13030;PMS7003;6582;54.644;9.760;2023-04-07T05:20:03;4.2;4.2;
13030;PMS7003;6582;54.644;9.760;2023-04-07T05:25:07;4.6;4.6;
13030;PMS7003;6582;54.644;9.760;2023-04-07T05:40:01;2.6;2.6;
13030;PMS7003;6582;54.644;9.760;2023-04-07T05:45:02;2.6;2.6;
13030;PMS7003;6582;54.644;9.760;2023-04-07T05:50:01;2.3;2.3;
13030;PMS7003;6582;54.644;9.760;2023-04-07T06:00:01;2.3;2.3;
13030;PMS7003;6582;54.644;9.760;2023-04-07T06:15:07;3.2;3.2;
13030;PMS7003;6582;54.644;9.760;2023-04-07T06:25:06;3.4;3.4;
13030;PMS7003;6582;54.644;9.760;2023-04-07T06:30:01;3.6;3.6;
13030;PMS7003;6582;54.644;9.760;2023-04-07T09:05:02;5.2;5.1;
13030;PMS7003;6582;54.644;9.760;2023-04-07T09:10:02;7.0;7.0;
13030;PMS7003;6582;54.644;9.760;2023-04-07T09:15:01;9.6;9.5;
13030;PMS7003;6582;54.644;9.760;2023-04-07T09:20:01;9.7;9.6;
13030;PMS7003;6582;54.644;9.760;2023-04-07T09:25:10;10.2;10.2;
13030;PMS7003;6582;54.644;9.760;2023-04-07T09:50:02;35.5;29.8;
13030;PMS7003;6582;54.644;9.760;2023-04-07T09:55:02;26.9;23.1;
13030;PMS7003;6582;54.644;9.760;2023-04-07T10:00:01;23.4;20.6;
13030;PMS7003;6582;54.644;9.760;2023-04-07T10:05:01;25.0;22.7;
13030;PMS7003;6582;54.644;9.760;2023-04-07T10:10:02;40.0;35.3;
13030;PMS7003;6582;54.644;9.760;2023-04-07T10:15:06;39.6;35.3;
13030;PMS7003;6582;54.644;9.760;2023-04-07T10:20:03;47.4;42.2;
13030;PMS7003;6582;54.644;9.760;2023-04-07T10:25:05;57.7;50.6;
13030;PMS7003;6582;54.644;9.760;2023-04-07T10:30:02;65.6;56.2;
13030;PMS7003;6582;54.644;9.760;2023-04-07T10:35:01;67.3;57.9;
13030;PMS7003;6582;54.644;9.760;2023-04-07T12:50:01;26.1;23.1;
13030;PMS7003;6582;54.644;9.760;2023-04-07T12:55:05;39.6;34.6;
13030;PMS7003;6582;54.644;9.760;2023-04-07T13:00:06;50.9;44.1;
13030;PMS7003;6582;54.644;9.760;2023-04-07T13:05:02;67.9;59.0;
13030;PMS7003;6582;54.644;9.760;2023-04-07T13:10:01;60.2;53.1;
13030;PMS7003;6582;54.644;9.760;2023-04-07T13:15:01;53.5;47.4;
13030;PMS7003;6582;54.644;9.760;2023-04-07T13:20:02;56.5;51.0;
13030;PMS7003;6582;54.644;9.760;2023-04-07T13:25:07;44.4;40.7;
13030;PMS7003;6582;54.644;9.760;2023-04-07T13:30:02;33.7;31.8;
13030;PMS7003;6582;54.644;9.760;2023-04-07T13:35:06;32.0;30.2;
13030;PMS7003;6582;54.644;9.760;2023-04-07T13:40:01;31.8;30.0;
13030;PMS7003;6582;54.644;9.760;2023-04-07T13:45:01;24.4;23.1;
13030;PMS7003;6582;54.644;9.760;2023-04-07T13:50:06;34.0;31.1;
13030;PMS7003;6582;54.644;9.760;2023-04-07T13:55:02;41.4;36.7;
13030;PMS7003;6582;54.644;9.760;2023-04-07T14:00:01;39.4;34.7;
13030;PMS7003;6582;54.644;9.760;2023-04-07T14:05:02;37.6;32.9;
13030;PMS7003;6582;54.644;9.760;2023-04-07T14:10:02;29.2;25.6;
13030;PMS7003;6582;54.644;9.760;2023-04-07T14:15:01;17.7;15.6;
13030;PMS7003;6582;54.644;9.760;2023-04-07T14:40:04;10.0;9.9;
13030;PMS7003;6582;54.644;9.760;2023-04-07T14:45:01;10.0;9.9;
13030;PMS7003;6582;54.644;9.760;2023-04-07T14:50:06;8.9;8.8;
13030;PMS7003;6582;54.644;9.760;2023-04-07T14:55:06;8.6;8.5;
13030;PMS7003;6582;54.644;9.760;2023-04-07T15:00:02;4.7;4.6;
13030;PMS7003;6582;54.644;9.760;2023-04-07T15:20:02;4.5;4.5;
13030;PMS7003;6582;54.644;9.760;2023-04-07T15:25:01;12.8;12.1;
13030;PMS7003;6582;54.644;9.760;2023-04-07T15:30:06;13.4;12.7;
13030;PMS7003;6582;54.644;9.760;2023-04-07T15:35:01;14.1;13.4;
13030;PMS7003;6582;54.644;9.760;2023-04-07T15:40:01;13.9;13.2;
13030;PMS7003;6582;54.644;9.760;2023-04-07T15:45:01;14.0;13.3;
13030;PMS7003;6582;54.644;9.760;2023-04-07T15:50:07;10.6;10.2;
13030;PMS7003;6582;54.644;9.760;2023-04-07T15:55:01;12.6;12.2;
13030;PMS7003;6582;54.644;9.760;2023-04-07T16:00:01;11.2;10.8;
13030;PMS7003;6582;54.644;9.760;2023-04-07T16:05:01;16.2;15.8;
13030;PMS7003;6582;54.644;9.760;2023-04-07T16:10:01;29.7;26.9;
13030;PMS7003;6582;54.644;9.760;2023-04-07T16:15:01;42.3;37.5;
13030;PMS7003;6582;54.644;9.760;2023-04-07T16:20:02;54.6;47.4;
13030;PMS7003;6582;54.644;9.760;2023-04-07T16:25:01;71.4;61.3;
13030;PMS7003;6582;54.644;9.760;2023-04-07T16:30:02;81.5;68.7;
13030;PMS7003;6582;54.644;9.760;2023-04-07T16:35:02;78.2;65.8;
13030;PMS7003;6582;54.644;9.760;2023-04-07T16:40:01;73.6;61.6;
13030;PMS7003;6582;54.644;9.760;2023-04-07T16:45:02;71.1;59.9;
13030;PMS7003;6582;54.644;9.760;2023-04-07T16:50:02;68.5;58.0;
13030;PMS7003;6582;54.644;9.760;2023-04-07T16:55:06;61.9;53.6;
13030;PMS7003;6582;54.644;9.760;2023-04-07T17:00:07;59.4;51.9;
13030;PMS7003;6582;54.644;9.760;2023-04-07T17:05:01;52.8;47.1;
13030;PMS7003;6582;54.644;9.760;2023-04-07T17:10:06;49.5;44.8;
13030;PMS7003;6582;54.644;9.760;2023-04-07T17:15:01;43.7;40.6;
13030;PMS7003;6582;54.644;9.760;2023-04-07T17:20:02;51.4;45.7;
13030;PMS7003;6582;54.644;9.760;2023-04-07T17:25:06;57.0;49.6;
13030;PMS7003;6582;54.644;9.760;2023-04-07T17:30:07;66.8;56.9;
13030;PMS7003;6582;54.644;9.760;2023-04-07T17:35:06;74.5;62.4;
13030;PMS7003;6582;54.644;9.760;2023-04-07T17:40:01;82.4;68.0;
13030;PMS7003;6582;54.644;9.760;2023-04-07T17:45:06;66.0;54.6;
13030;PMS7003;6582;54.644;9.760;2023-04-07T17:50:08;64.7;53.8;
13030;PMS7003;6582;54.644;9.760;2023-04-07T17:55:08;61.6;51.6;
13030;PMS7003;6582;54.644;9.760;2023-04-07T18:00:12;60.3;50.8;
13030;PMS7003;6582;54.644;9.760;2023-04-07T18:05:04;59.7;50.4;
13030;PMS7003;6582;54.644;9.760;2023-04-07T18:10:02;72.6;61.7;
13030;PMS7003;6582;54.644;9.760;2023-04-07T18:15:01;65.7;56.6;
13030;PMS7003;6582;54.644;9.760;2023-04-07T18:20:01;62.6;54.4;
13030;PMS7003;6582;54.644;9.760;2023-04-07T18:25:01;59.8;52.3;
13030;PMS7003;6582;54.644;9.760;2023-04-07T18:30:01;62.6;55.9;
13030;PMS7003;6582;54.644;9.760;2023-04-07T18:35:01;53.4;48.4;
13030;PMS7003;6582;54.644;9.760;2023-04-07T18:40:06;63.7;57.4;
13030;PMS7003;6582;54.644;9.760;2023-04-07T18:45:06;69.8;62.1;
13030;PMS7003;6582;54.644;9.760;2023-04-07T18:50:02;72.1;63.6;
13030;PMS7003;6582;54.644;9.760;2023-04-07T18:55:02;69.2;59.9;
13030;PMS7003;6582;54.644;9.760;2023-04-07T19:00:02;78.3;67.2;
13030;PMS7003;6582;54.644;9.760;2023-04-07T19:05:02;68.7;58.7;
13030;PMS7003;6582;54.644;9.760;2023-04-07T19:10:01;59.1;51.1;
13030;PMS7003;6582;54.644;9.760;2023-04-07T19:15:01;47.0;41.5;
13030;PMS7003;6582;54.644;9.760;2023-04-07T19:20:01;34.0;30.9;
13030;PMS7003;6582;54.644;9.760;2023-04-07T19:25:02;25.2;24.0;
13030;PMS7003;6582;54.644;9.760;2023-04-07T19:30:01;18.8;18.4;
13030;PMS7003;6582;54.644;9.760;2023-04-07T19:35:01;25.6;23.6;
13030;PMS7003;6582;54.644;9.760;2023-04-07T19:40:04;22.8;20.8;
13030;PMS7003;6582;54.644;9.760;2023-04-07T19:45:01;33.3;29.6;
13030;PMS7003;6582;54.644;9.760;2023-04-07T19:50:01;38.2;34.0;
13030;PMS7003;6582;54.644;9.760;2023-04-07T19:55:02;42.2;37.8;
13030;PMS7003;6582;54.644;9.760;2023-04-07T20:00:07;39.3;35.5;
13030;PMS7003;6582;54.644;9.760;2023-04-07T20:05:02;51.7;46.4;
13030;PMS7003;6582;54.644;9.760;2023-04-07T20:10:01;48.6;44.2;
13030;PMS7003;6582;54.644;9.760;2023-04-07T20:15:01;50.3;45.2;
13030;PMS7003;6582;54.644;9.760;2023-04-07T20:20:02;53.8;48.1;
13030;PMS7003;6582;54.644;9.760;2023-04-07T20:25:06;43.6;39.1;
13030;PMS7003;6582;54.644;9.760;2023-04-07T20:30:01;33.9;30.9;
13030;PMS7003;6582;54.644;9.760;2023-04-07T20:35:02;32.1;29.8;
13030;PMS7003;6582;54.644;9.760;2023-04-07T20:40:02;31.7;29.6;
13030;PMS7003;6582;54.644;9.760;2023-04-07T20:45:02;32.4;30.1;
13030;PMS7003;6582;54.644;9.760;2023-04-07T20:50:01;39.8;37.4;
13030;PMS7003;6582;54.644;9.760;2023-04-07T20:55:02;44.5;41.8;
13030;PMS7003;6582;54.644;9.760;2023-04-07T21:00:06;41.2;38.8;
13030;PMS7003;6582;54.644;9.760;2023-04-07T21:05:01;35.1;33.6;
13030;PMS7003;6582;54.644;9.760;2023-04-07T21:10:02;31.3;30.0;
13030;PMS7003;6582;54.644;9.760;2023-04-07T21:15:01;27.4;26.2;
13030;PMS7003;6582;54.644;9.760;2023-04-07T21:20:01;23.8;22.9;
13030;PMS7003;6582;54.644;9.760;2023-04-07T21:25:01;31.0;28.4;
13030;PMS7003;6582;54.644;9.760;2023-04-07T21:30:06;34.2;31.6;
13030;PMS7003;6582;54.644;9.760;2023-04-07T21:35:04;39.2;36.0;
13030;PMS7003;6582;54.644;9.760;2023-04-07T21:40:06;46.7;42.2;
13030;PMS7003;6582;54.644;9.760;2023-04-07T21:45:11;54.7;48.5;
13030;PMS7003;6582;54.644;9.760;2023-04-07T21:50:01;52.0;46.8;
13030;PMS7003;6582;54.644;9.760;2023-04-07T21:55:02;51.8;46.6;
13030;PMS7003;6582;54.644;9.760;2023-04-07T22:00:01;47.3;43.2;
13030;PMS7003;6582;54.644;9.760;2023-04-07T22:05:01;41.2;38.3;
13030;PMS7003;6582;54.644;9.760;2023-04-07T22:10:01;33.2;32.0;
13030;PMS7003;6582;54.644;9.760;2023-04-07T22:15:01;28.2;27.8;
13030;PMS7003;6582;54.644;9.760;2023-04-07T22:20:12;24.8;24.3;
13030;PMS7003;6582;54.644;9.760;2023-04-07T22:25:01;18.2;18.2;
13030;PMS7003;6582;54.644;9.760;2023-04-07T22:30:01;15.4;15.4;
13030;PMS7003;6582;54.644;9.760;2023-04-07T22:35:02;16.0;15.9;
13030;PMS7003;6582;54.644;9.760;2023-04-07T22:40:02;12.4;12.4;
13030;PMS7003;6582;54.644;9.760;2023-04-07T22:45:01;12.1;12.1;
13030;PMS7003;6582;54.644;9.760;2023-04-07T22:50:01;13.7;13.7;
13030;PMS7003;6582;54.644;9.760;2023-04-07T22:55:01;25.1;22.9;
13030;PMS7003;6582;54.644;9.760;2023-04-07T23:00:02;35.3;30.9;
13030;PMS7003;6582;54.644;9.760;2023-04-07T23:05:11;36.3;31.9;
13030;PMS7003;6582;54.644;9.760;2023-04-07T23:10:06;46.0;39.7;
13030;PMS7003;6582;54.644;9.760;2023-04-07T23:15:07;57.0;48.6;
13030;PMS7003;6582;54.644;9.760;2023-04-07T23:20:01;55.5;47.8;
13030;PMS7003;6582;54.644;9.760;2023-04-07T23:25:01;49.6;43.5;
13030;PMS7003;6582;54.644;9.760;2023-04-07T23:30:07;53.4;47.3;
13030;PMS7003;6582;54.644;9.760;2023-04-07T23:35:01;44.5;40.2;
13030;PMS7003;6582;54.644;9.760;2023-04-07T23:40:01;37.0;34.7;
13030;PMS7003;6582;54.644;9.760;2023-04-07T23:45:01;28.1;27.4;
13030;PMS7003;6582;54.644;9.760;2023-04-07T23:50:02;24.5;24.0;
13030;PMS7003;6582;54.644;9.760;2023-04-07T23:55:01;20.7;20.3;
